createdAt,value
2019-05-25T00:02:31.747Z,3.43
2019-05-25T00:05:01.747Z,3.30
2019-05-25T00:07:31.583Z,2.90
2019-05-25T00:10:00.469Z,3.30
2019-05-25T00:12:34.047Z,3.47
2019-05-25T00:15:02.945Z,3.33
2019-05-25T00:17:32.493Z,3.17
2019-05-25T00:20:01.473Z,3.47
2019-05-25T00:22:30.761Z,2.70
2019-05-25T00:25:00.321Z,3.53
2019-05-25T00:27:38.233Z,3.20
2019-05-25T00:30:12.038Z,3.20
2019-05-25T00:32:42.195Z,3.10
2019-05-25T00:35:11.560Z,3.17
2019-05-25T00:37:40.787Z,3.63
2019-05-25T00:40:14.397Z,3.87
2019-05-25T00:42:44.239Z,3.40
2019-05-25T00:45:14.055Z,3.50
2019-05-25T00:47:43.699Z,3.47
2019-05-25T00:50:12.793Z,3.33
2019-05-25T00:52:41.962Z,3.60
2019-05-25T00:55:14.638Z,3.60
2019-05-25T00:57:52.795Z,3.63
2019-05-25T01:00:24.544Z,3.33
2019-05-25T01:02:54.089Z,3.07
2019-05-25T01:05:23.232Z,3.03
2019-05-25T01:08:01.687Z,3.60
2019-05-25T01:10:31.674Z,3.17
2019-05-25T01:13:18.530Z,3.50
2019-05-25T01:15:47.419Z,3.23
2019-05-25T01:18:16.318Z,3.60
2019-05-25T01:20:54.900Z,3.80
2019-05-25T01:23:24.477Z,3.37
2019-05-25T01:25:54.483Z,3.70
2019-05-25T01:28:37.772Z,3.77
2019-05-25T01:31:06.458Z,3.20
2019-05-25T01:33:44.991Z,3.60
2019-05-25T01:36:17.222Z,3.60
2019-05-25T01:38:46.064Z,3.47
2019-05-25T01:41:15.629Z,3.47
2019-05-25T01:43:52.652Z,4.00
2019-05-25T01:46:23.044Z,3.67
2019-05-25T01:48:52.592Z,3.50
2019-05-25T01:51:22.217Z,3.83
2019-05-25T01:53:51.742Z,3.90
2019-05-25T01:56:21.326Z,4.70
2019-05-25T01:58:51.269Z,5.10
2019-05-25T02:01:20.156Z,4.20
2019-05-25T02:03:50.560Z,4.63
2019-05-25T02:06:19.539Z,4.20
2019-05-25T02:08:49.388Z,4.33
2019-05-25T02:11:18.257Z,4.10
2019-05-25T02:13:47.254Z,3.53
2019-05-25T02:16:22.907Z,5.80
2019-05-25T02:18:51.894Z,3.90
2019-05-25T02:21:21.432Z,5.03
2019-05-25T02:23:50.320Z,3.83
2019-05-25T02:26:27.981Z,4.40
2019-05-25T02:28:56.861Z,4.20
2019-05-25T02:31:26.513Z,4.07
2019-05-25T02:33:56.446Z,3.80
2019-05-25T02:36:25.971Z,4.23
2019-05-25T02:38:55.618Z,4.07
2019-05-25T02:41:25.210Z,4.07
2019-05-25T02:43:54.767Z,4.80
2019-05-25T02:46:24.432Z,4.37
2019-05-25T02:49:00.081Z,4.43
2019-05-25T02:51:29.830Z,4.10
2019-05-25T02:53:59.380Z,4.90
2019-05-25T02:56:28.938Z,4.67
2019-05-25T02:58:58.590Z,4.57
2019-05-25T03:01:27.471Z,4.27
2019-05-25T03:03:56.637Z,4.70
2019-05-25T03:06:26.794Z,5.10
2019-05-25T03:08:57.230Z,4.90
2019-05-25T03:11:26.749Z,4.90
2019-05-25T03:13:56.801Z,4.90
2019-05-25T03:16:26.385Z,4.53
2019-05-25T03:18:55.563Z,4.53
2019-05-25T03:21:24.618Z,5.17
2019-05-25T03:23:53.863Z,5.50
2019-05-25T03:26:23.378Z,4.87
2019-05-25T03:28:52.357Z,4.80
2019-05-25T03:31:21.916Z,5.03
2019-05-25T03:33:51.474Z,4.80
2019-05-25T03:36:21.904Z,4.53
2019-05-25T03:38:50.758Z,5.20
2019-05-25T03:41:19.645Z,5.60
2019-05-25T03:43:49.570Z,6.13
2019-05-25T03:46:18.457Z,5.70
2019-05-25T03:48:47.999Z,5.80
2019-05-25T03:51:18.544Z,5.87
2019-05-25T03:54:05.341Z,5.93
2019-05-25T03:56:34.404Z,5.77
2019-05-25T03:59:04.283Z,5.50
2019-05-25T04:01:33.854Z,6.63
2019-05-25T04:04:03.795Z,5.70
2019-05-25T04:06:32.695Z,6.30
2019-05-25T04:09:02.333Z,5.23
2019-05-25T04:11:31.989Z,6.30
2019-05-25T04:14:01.591Z,5.73
2019-05-25T04:16:31.148Z,6.37
2019-05-25T04:19:08.314Z,6.13
2019-05-25T04:21:45.037Z,6.30
2019-05-25T04:24:17.274Z,6.37
2019-05-25T04:26:50.974Z,6.93
2019-05-25T04:29:21.097Z,6.13
2019-05-25T04:31:59.966Z,6.00
2019-05-25T04:34:28.963Z,6.37
2019-05-25T04:36:58.157Z,6.43
2019-05-25T04:39:27.712Z,6.70
2019-05-25T04:41:57.383Z,6.33
2019-05-25T04:44:26.922Z,7.10
2019-05-25T04:46:55.809Z,6.70
2019-05-25T04:49:28.464Z,6.87
2019-05-25T04:52:08.853Z,7.00
2019-05-25T04:54:29.105Z,7.43
2019-05-25T04:57:07.765Z,7.23
2019-05-25T04:59:37.907Z,7.03
2019-05-25T05:02:07.655Z,7.40
2019-05-25T05:04:37.770Z,6.60
2019-05-25T05:07:06.658Z,7.30
2019-05-25T05:09:35.561Z,7.70
2019-05-25T05:12:05.324Z,7.40
2019-05-25T05:14:35.087Z,7.97
2019-05-25T05:17:04.937Z,7.70
2019-05-25T05:19:33.937Z,8.43
2019-05-25T05:22:05.755Z,8.57
2019-05-25T05:24:34.177Z,7.67
2019-05-25T05:27:03.836Z,8.87
2019-05-25T05:29:33.035Z,9.33
2019-05-25T05:32:01.938Z,9.63
2019-05-25T05:34:31.661Z,9.67
2019-05-25T05:37:03.130Z,10.33
2019-05-25T05:39:32.809Z,9.93
2019-05-25T05:42:02.844Z,9.40
2019-05-25T05:44:32.760Z,10.23
2019-05-25T05:47:02.426Z,9.97
2019-05-25T05:49:32.806Z,9.33
2019-05-25T05:52:05.246Z,8.00
2019-05-25T05:54:38.930Z,8.90
2019-05-25T05:57:12.123Z,8.33
2019-05-25T05:59:39.673Z,9.50
2019-05-25T06:02:08.958Z,8.73
2019-05-25T06:04:38.678Z,8.30
2019-05-25T06:07:07.631Z,8.97
2019-05-25T06:09:39.347Z,8.67
2019-05-25T06:12:08.225Z,8.27
2019-05-25T06:14:38.183Z,8.57
2019-05-25T06:17:07.846Z,7.73
2019-05-25T06:19:37.585Z,9.77
2019-05-25T06:22:25.912Z,8.07
2019-05-25T06:24:55.478Z,8.80
2019-05-25T06:27:27.503Z,8.00
2019-05-25T06:29:55.901Z,8.40
2019-05-25T06:32:25.506Z,8.87
2019-05-25T06:34:54.390Z,8.17
2019-05-25T06:37:24.055Z,9.20
2019-05-25T06:39:54.075Z,8.77
2019-05-25T06:42:23.629Z,9.03
2019-05-25T06:44:53.273Z,8.10
2019-05-25T06:47:22.835Z,9.37
2019-05-25T06:49:58.810Z,8.33
2019-05-25T06:52:28.988Z,9.40
2019-05-25T06:54:57.894Z,10.07
2019-05-25T06:57:42.112Z,10.47
2019-05-25T06:59:59.715Z,10.00
2019-05-25T07:02:29.219Z,9.07
2019-05-25T07:04:58.210Z,9.97
2019-05-25T07:07:27.113Z,8.97
2019-05-25T07:09:56.663Z,9.57
2019-05-25T07:12:26.330Z,9.37
2019-05-25T07:14:56.187Z,8.67
2019-05-25T07:17:25.086Z,8.03
2019-05-25T07:19:54.784Z,9.47
2019-05-25T07:22:24.330Z,8.13
2019-05-25T07:24:54.194Z,8.68
2019-05-25T07:27:23.517Z,8.65
2019-05-25T07:29:53.073Z,9.48
2019-05-25T07:32:23.109Z,9.05
2019-05-25T07:34:53.109Z,9.50
2019-05-25T07:37:22.686Z,8.75
2019-05-25T07:39:51.931Z,9.33
2019-05-25T07:42:21.560Z,8.90
2019-05-25T07:44:51.482Z,9.40
2019-05-25T07:47:20.365Z,10.03
2019-05-25T07:49:50.030Z,9.93
2019-05-25T07:52:19.575Z,9.87
2019-05-25T07:54:49.150Z,10.63
2019-05-25T07:57:18.833Z,10.17
2019-05-25T07:59:49.152Z,9.90
2019-05-25T08:02:18.856Z,10.33
2019-05-25T08:04:47.866Z,11.77
2019-05-25T08:07:17.430Z,11.73
2019-05-25T08:09:47.014Z,13.93
2019-05-25T08:12:16.684Z,14.73
2019-05-25T08:14:46.238Z,12.83
2019-05-25T08:17:15.814Z,15.10
2019-05-25T08:19:45.484Z,15.13
2019-05-25T08:22:15.051Z,14.63
2019-05-25T08:24:44.624Z,13.57
2019-05-25T08:27:14.220Z,15.50
2019-05-25T08:36:18.985Z,15.20
2019-05-25T08:38:48.682Z,15.83
2019-05-25T08:41:18.295Z,15.17
2019-05-25T08:43:47.979Z,15.58
2019-05-25T08:46:17.276Z,14.75
2019-05-25T08:48:46.137Z,15.08
2019-05-25T08:51:15.887Z,14.47
2019-05-25T08:53:46.687Z,13.98
2019-05-25T08:56:16.450Z,14.65
2019-05-25T08:58:49.125Z,13.50
2019-05-25T09:01:18.090Z,13.22
2019-05-25T09:03:47.918Z,14.78
2019-05-25T09:06:16.994Z,15.58
2019-05-25T09:08:45.840Z,15.45
2019-05-25T09:11:14.755Z,13.68
2019-05-25T09:13:44.036Z,13.03
2019-05-25T09:16:13.938Z,13.15
2019-05-25T09:18:43.610Z,13.32
2019-05-25T09:21:13.279Z,13.35
2019-05-25T09:23:43.514Z,12.85
2019-05-25T09:26:13.547Z,11.30
2019-05-25T09:28:43.295Z,11.60
2019-05-25T09:31:12.906Z,11.97
2019-05-25T09:33:42.455Z,11.53
2019-05-25T09:36:14.226Z,11.10
2019-05-25T09:38:43.766Z,11.70
2019-05-25T09:43:41.505Z,12.37
2019-05-25T09:46:11.087Z,11.83
2019-05-25T09:48:39.996Z,13.10
2019-05-25T09:51:15.351Z,13.60
2019-05-25T09:53:39.809Z,12.97
2019-05-25T09:56:26.744Z,12.37
2019-05-25T09:58:56.403Z,12.47
2019-05-25T10:01:31.970Z,12.13
2019-05-25T10:04:02.643Z,12.57
2019-05-25T10:06:32.197Z,12.80
2019-05-25T10:09:02.667Z,13.00
2019-05-25T10:11:31.683Z,12.03
2019-05-25T10:14:01.257Z,13.10
2019-05-25T10:16:30.843Z,12.70
2019-05-25T10:19:00.269Z,13.17
2019-05-25T10:21:29.846Z,12.07
2019-05-25T10:24:08.482Z,12.97
2019-05-25T10:26:37.986Z,13.77
2019-05-25T10:29:07.875Z,13.37
2019-05-25T10:31:43.066Z,12.97
2019-05-25T10:34:12.696Z,11.80
2019-05-25T10:36:42.634Z,10.83
2019-05-25T10:39:11.655Z,9.90
2019-05-25T10:41:40.595Z,10.77
2019-05-25T10:44:15.638Z,10.47
2019-05-25T10:46:45.251Z,10.17
2019-05-25T10:49:14.250Z,11.37
2019-05-25T10:51:57.614Z,10.77
2019-05-25T10:54:27.194Z,10.20
2019-05-25T10:56:56.774Z,9.93
2019-05-25T10:59:26.650Z,11.17
2019-05-25T11:01:56.220Z,9.97
2019-05-25T11:04:44.328Z,9.30
2019-05-25T11:07:16.603Z,9.60
2019-05-25T11:09:46.174Z,9.70
2019-05-25T11:12:15.837Z,9.97
2019-05-25T11:14:44.782Z,9.57
2019-05-25T11:17:19.669Z,10.03
2019-05-25T11:19:48.919Z,9.57
2019-05-25T11:22:18.488Z,7.50
2019-05-25T11:24:48.428Z,7.47
2019-05-25T11:27:18.107Z,6.53
2019-05-25T11:29:47.003Z,6.57
2019-05-25T11:32:16.691Z,6.43
2019-05-25T11:34:58.662Z,5.90
2019-05-25T11:37:28.332Z,5.43
2019-05-25T11:39:57.915Z,6.33
2019-05-25T11:42:27.583Z,7.93
2019-05-25T11:45:00.301Z,7.37
2019-05-25T11:47:30.140Z,6.90
2019-05-25T11:49:59.721Z,6.17
2019-05-25T11:52:29.964Z,6.33
2019-05-25T11:54:59.530Z,6.83
2019-05-25T11:57:29.108Z,6.13
2019-05-25T11:59:58.797Z,4.80
2019-05-25T12:02:28.348Z,5.37
2019-05-25T12:05:02.657Z,5.80
2019-05-25T12:07:33.191Z,6.23
2019-05-25T12:10:02.792Z,5.90
2019-05-25T12:12:32.401Z,5.40
2019-05-25T12:15:02.091Z,5.40
2019-05-25T12:17:31.955Z,5.50
2019-05-25T12:20:00.870Z,5.83
2019-05-25T12:22:30.599Z,5.70
2019-05-25T12:25:00.222Z,4.90
2019-05-25T12:27:29.826Z,5.17
2019-05-25T12:30:02.573Z,4.80
2019-05-25T12:32:42.319Z,5.00
2019-05-25T12:35:03.262Z,4.83
2019-05-25T12:37:32.992Z,5.70
2019-05-25T12:40:02.666Z,5.07
2019-05-25T12:42:32.250Z,5.03
2019-05-25T12:45:01.982Z,5.03
2019-05-25T12:47:30.909Z,4.80
2019-05-25T12:50:03.753Z,4.83
2019-05-25T12:52:49.984Z,5.10
2019-05-25T12:55:19.699Z,4.43
2019-05-25T12:57:50.865Z,5.00
2019-05-25T13:00:19.385Z,5.17
2019-05-25T13:02:55.319Z,5.00
2019-05-25T13:05:34.111Z,5.33
2019-05-25T13:08:01.563Z,5.73
2019-05-25T13:10:31.434Z,5.77
2019-05-25T13:13:02.144Z,5.83
2019-05-25T13:15:31.963Z,5.80
2019-05-25T13:18:01.632Z,6.53
2019-05-25T13:20:38.553Z,6.07
2019-05-25T13:23:08.360Z,6.13
2019-05-25T13:25:37.404Z,6.30
2019-05-25T13:28:07.084Z,5.60
2019-05-25T13:30:36.706Z,6.20
2019-05-25T13:33:06.382Z,6.53
2019-05-25T13:35:35.935Z,7.17
2019-05-25T13:38:11.431Z,7.13
2019-05-25T13:40:40.607Z,6.63
2019-05-25T13:43:10.285Z,6.73
2019-05-25T13:45:40.027Z,5.67
2019-05-25T13:48:09.603Z,5.87
2019-05-25T13:50:43.426Z,6.17
2019-05-25T13:53:13.090Z,6.50
2019-05-25T13:55:44.956Z,6.27
2019-05-25T13:58:14.807Z,6.27
2019-05-25T14:00:44.438Z,6.20
2019-05-25T14:03:14.166Z,6.17
2019-05-25T14:05:51.063Z,5.47
2019-05-25T14:08:20.666Z,5.70
2019-05-25T14:11:00.909Z,5.23
2019-05-25T14:13:30.696Z,5.07
2019-05-25T14:16:07.208Z,4.83
2019-05-25T14:18:32.154Z,5.03
2019-05-25T14:21:01.354Z,5.13
2019-05-25T14:23:30.938Z,4.70
2019-05-25T14:26:00.610Z,5.73
2019-05-25T14:28:29.765Z,6.20
2019-05-25T14:30:59.419Z,6.90
2019-05-25T14:33:29.081Z,5.57
2019-05-25T14:35:58.939Z,6.60
2019-05-25T14:38:27.843Z,5.40
2019-05-25T14:40:57.564Z,4.70
2019-05-25T14:43:27.565Z,4.83
2019-05-25T14:45:56.479Z,4.80
2019-05-25T14:48:26.754Z,5.53
2019-05-25T14:50:56.328Z,4.20
2019-05-25T14:53:25.533Z,3.60
2019-05-25T14:55:56.270Z,3.93
2019-05-25T14:58:25.182Z,3.80
2019-05-25T15:00:54.753Z,2.80
2019-05-25T15:03:24.342Z,3.60
2019-05-25T15:05:53.955Z,3.70
2019-05-25T15:08:22.941Z,3.80
2019-05-25T15:10:52.838Z,3.33
2019-05-25T15:13:22.400Z,3.43
2019-05-25T15:15:53.136Z,3.00
2019-05-25T15:18:22.806Z,2.97
2019-05-25T15:20:52.046Z,3.30
2019-05-25T15:23:23.389Z,3.30
2019-05-25T15:25:52.301Z,2.77
2019-05-25T15:28:21.944Z,3.00
2019-05-25T15:30:51.762Z,4.70
2019-05-25T15:33:20.775Z,4.63
2019-05-25T15:35:50.619Z,3.20
2019-05-25T15:38:20.226Z,3.93
2019-05-25T15:40:49.932Z,4.43
2019-05-25T15:43:18.849Z,3.43
2019-05-25T15:45:48.623Z,3.90
2019-05-25T15:48:17.653Z,3.63
2019-05-25T15:50:55.096Z,3.93
2019-05-25T15:53:26.926Z,3.80
2019-05-25T15:55:56.538Z,4.40
2019-05-25T15:58:25.567Z,4.47
2019-05-25T16:00:55.366Z,4.23
2019-05-25T16:03:25.039Z,4.03
2019-05-25T16:05:54.655Z,4.37
2019-05-25T16:08:29.929Z,4.90
2019-05-25T16:10:59.544Z,4.93
2019-05-25T16:13:29.050Z,5.07
2019-05-25T16:15:58.078Z,5.07
2019-05-25T16:18:28.123Z,4.57
2019-05-25T16:20:59.389Z,4.80
2019-05-25T16:23:28.377Z,5.20
2019-05-25T16:26:05.825Z,4.67
2019-05-25T16:28:35.505Z,5.70
2019-05-25T16:31:04.861Z,5.60
2019-05-25T16:33:40.710Z,5.50
2019-05-25T16:36:11.140Z,5.40
2019-05-25T16:38:40.360Z,4.80
2019-05-25T16:41:19.909Z,6.27
2019-05-25T16:43:50.760Z,5.47
2019-05-25T16:46:20.318Z,5.47
2019-05-25T16:48:50.657Z,5.60
2019-05-25T16:51:19.554Z,5.47
2019-05-25T16:53:49.116Z,5.00
2019-05-25T16:56:18.707Z,5.03
2019-05-25T16:58:47.895Z,5.17
2019-05-25T17:01:18.239Z,4.80
2019-05-25T17:03:48.181Z,5.47
2019-05-25T17:06:18.026Z,5.03
2019-05-25T17:08:47.635Z,4.97
2019-05-25T17:11:17.050Z,20.97
2019-05-25T17:16:13.865Z,4.50
2019-05-25T17:18:43.734Z,4.33
2019-05-25T17:21:12.646Z,5.00
2019-05-25T17:23:42.536Z,5.40
2019-05-25T17:26:11.540Z,7.40
2019-05-25T17:28:41.113Z,5.83
2019-05-25T17:31:10.691Z,5.63
2019-05-25T17:33:46.007Z,5.00
2019-05-25T17:36:13.049Z,5.20
2019-05-25T17:38:43.722Z,5.00
2019-05-25T17:41:12.706Z,5.10
2019-05-25T17:43:42.313Z,5.23
2019-05-25T17:46:11.209Z,5.10
2019-05-25T17:48:43.934Z,5.23
2019-05-25T17:51:13.582Z,5.60
2019-05-25T17:53:43.380Z,5.20
2019-05-25T17:56:19.207Z,6.03
2019-05-25T17:58:48.823Z,5.20
2019-05-25T18:01:17.781Z,5.23
2019-05-25T18:04:04.990Z,5.00
2019-05-25T18:06:19.458Z,5.00
2019-05-25T18:08:51.363Z,4.80
2019-05-25T18:11:27.167Z,4.83
2019-05-25T18:13:56.099Z,5.00
2019-05-25T18:16:25.027Z,4.90
2019-05-25T18:18:54.055Z,5.03
2019-05-25T18:21:23.660Z,4.17
2019-05-25T18:23:53.216Z,4.33
2019-05-25T18:26:22.250Z,4.33
2019-05-25T18:28:52.627Z,4.30
2019-05-25T18:31:21.588Z,3.80
2019-05-25T18:33:50.612Z,3.90
2019-05-25T18:36:21.478Z,3.57
2019-05-25T18:38:50.671Z,4.77
2019-05-25T18:41:20.366Z,4.77
2019-05-25T18:43:52.805Z,4.97
2019-05-25T18:46:22.682Z,4.50
2019-05-25T18:48:52.309Z,5.07
2019-05-25T18:51:21.879Z,4.50
2019-05-25T18:53:51.436Z,4.90
2019-05-25T18:56:21.043Z,4.83
2019-05-25T18:58:49.953Z,4.33
2019-05-25T19:01:18.890Z,4.47
2019-05-25T19:03:47.878Z,4.93
2019-05-25T19:06:16.800Z,4.97
2019-05-25T19:08:46.895Z,4.73
2019-05-25T19:11:16.576Z,4.83
2019-05-25T19:13:52.647Z,4.57
2019-05-25T19:16:21.655Z,4.90
2019-05-25T19:18:51.210Z,4.57
2019-05-25T19:21:21.060Z,4.90
2019-05-25T19:23:58.053Z,5.60
2019-05-25T19:26:34.399Z,5.27
2019-05-25T19:29:06.002Z,4.50
2019-05-25T19:31:35.059Z,4.67
2019-05-25T19:34:04.602Z,4.43
2019-05-25T19:36:42.000Z,4.27
2019-05-25T19:39:13.307Z,4.27
2019-05-25T19:41:42.867Z,4.13
2019-05-25T19:44:12.804Z,4.60
2019-05-25T19:46:41.722Z,4.30
2019-05-25T19:49:20.157Z,4.43
2019-05-25T19:51:49.049Z,4.10
2019-05-25T19:54:18.894Z,4.57
2019-05-25T19:56:47.811Z,4.63
2019-05-25T19:59:17.363Z,4.83
2019-05-25T20:01:46.435Z,4.50
2019-05-25T20:04:15.428Z,4.17
2019-05-25T20:06:51.491Z,4.10
2019-05-25T20:09:21.134Z,4.00
2019-05-25T20:11:50.695Z,4.20
2019-05-25T20:14:20.246Z,4.00
2019-05-25T20:16:49.902Z,4.57
2019-05-25T20:19:20.584Z,4.43
2019-05-25T20:21:55.655Z,4.60
2019-05-25T20:24:25.334Z,4.00
2019-05-25T20:26:54.283Z,4.87
2019-05-25T20:29:23.838Z,4.27
2019-05-25T20:32:01.431Z,4.23
2019-05-25T20:34:31.022Z,4.07
2019-05-25T20:37:00.831Z,4.50
2019-05-25T20:39:36.966Z,4.27
2019-05-25T20:42:23.313Z,4.13
2019-05-25T20:44:52.247Z,4.37
2019-05-25T20:47:21.866Z,4.13
2019-05-25T20:49:51.438Z,4.80
2019-05-25T20:52:20.364Z,5.10
2019-05-25T20:54:50.323Z,4.40
2019-05-25T20:57:20.971Z,4.23
2019-05-25T20:59:49.869Z,4.87
2019-05-25T21:02:19.850Z,4.67
2019-05-25T21:04:49.418Z,4.73
2019-05-25T21:07:19.112Z,4.40
2019-05-25T21:09:48.681Z,5.13
2019-05-25T21:12:18.622Z,4.90
2019-05-25T21:14:48.775Z,5.27
2019-05-25T21:17:17.697Z,4.53
2019-05-25T21:19:47.265Z,5.07
2019-05-25T21:22:16.918Z,5.77
2019-05-25T21:24:46.479Z,5.27
2019-05-25T21:27:16.010Z,5.13
2019-05-25T21:29:45.604Z,5.77
2019-05-25T21:32:15.227Z,6.00
2019-05-25T21:34:44.734Z,6.27
2019-05-25T21:37:14.014Z,5.23
2019-05-25T21:42:26.315Z,6.53
2019-05-25T21:44:55.983Z,6.93
2019-05-25T21:47:27.583Z,6.50
2019-05-25T21:49:56.581Z,6.40
2019-05-25T21:52:51.919Z,6.80
2019-05-25T21:55:21.877Z,7.10
2019-05-25T21:57:51.437Z,7.13
2019-05-25T22:00:23.860Z,6.80
2019-05-25T22:03:02.698Z,6.73
2019-05-25T22:05:42.110Z,7.07
2019-05-25T22:08:11.859Z,6.80
2019-05-25T22:10:41.498Z,7.30
2019-05-25T22:13:27.464Z,6.27
2019-05-25T22:15:43.521Z,7.30
2019-05-25T22:18:12.353Z,8.43
2019-05-25T22:23:16.966Z,7.10
2019-05-25T22:25:46.533Z,7.27
2019-05-25T22:28:15.426Z,8.57
2019-05-25T22:30:45.320Z,7.20
2019-05-25T22:33:14.926Z,8.00
2019-05-25T22:35:44.474Z,7.27
2019-05-25T22:38:13.663Z,7.40
2019-05-25T22:41:13.170Z,8.27
2019-05-25T22:43:42.171Z,8.40
2019-05-25T22:46:11.731Z,8.80
2019-05-25T22:48:42.697Z,8.23
2019-05-25T22:51:11.670Z,8.73
2019-05-25T22:53:41.234Z,8.67
2019-05-25T22:56:10.793Z,8.50
2019-05-25T22:58:42.818Z,8.37
2019-05-25T23:01:22.097Z,9.13
2019-05-25T23:03:42.605Z,9.57
2019-05-25T23:06:12.554Z,8.97
2019-05-25T23:08:42.102Z,9.07
2019-05-25T23:11:11.736Z,9.03
2019-05-25T23:13:41.381Z,8.97
2019-05-25T23:16:14.088Z,8.87
2019-05-25T23:18:44.209Z,9.17
2019-05-25T23:21:22.225Z,9.83
2019-05-25T23:23:51.219Z,8.97
2019-05-25T23:26:20.110Z,9.47
2019-05-25T23:28:49.282Z,9.40
2019-05-25T23:31:18.896Z,9.37
2019-05-25T23:33:56.363Z,8.43
2019-05-25T23:36:25.648Z,9.47
2019-05-25T23:38:58.008Z,8.57
2019-05-25T23:41:27.074Z,9.63
2019-05-25T23:43:59.656Z,10.00
2019-05-25T23:46:27.058Z,9.40
2019-05-25T23:48:56.618Z,9.57
2019-05-25T23:51:26.402Z,9.30
2019-05-25T23:53:56.009Z,9.63
2019-05-25T23:56:24.988Z,9.70
2019-05-25T23:58:54.650Z,9.60
